Time;durP1;ratioP1;P1;durP2;ratioP2;P2;SDS_P1;SDS_P2;PMS_P1;PMS_P2;Temp;Humidity;BMP_temperature;BMP_pressure;BME280_temperature;BME280_humidity;BME280_pressure;Samples;Min_cycle;Max_cycle;Signal;HPM_P1;HPM_P2
2021/05/24 00:00:08;;;;;;;3.13;2.92;;;;;;;11.46;67.23;101309.41;696889;28;8328;-66
2021/05/24 00:00:30;;;;;;;3.30;3.10;;;;;;;11.45;67.05;101308.53;697761;28;892;-65
2021/05/24 00:00:52;;;;;;;3.67;3.30;;;;;;;11.45;66.76;101308.53;695870;28;47502;-66
2021/05/24 00:01:13;;;;;;;5.07;3.38;;;;;;;11.43;67.17;101315.97;695679;28;46424;-66
2021/05/24 00:01:34;;;;;;;3.80;3.25;;;;;;;11.43;67.26;101315.97;696184;28;24299;-66
2021/05/24 00:01:55;;;;;;;3.70;3.40;;;;;;;11.41;66.89;101314.44;696710;28;23187;-66
2021/05/24 00:02:16;;;;;;;3.55;3.33;;;;;;;11.40;67.19;101313.59;695734;28;24363;-66
2021/05/24 00:02:38;;;;;;;3.40;3.20;;;;;;;11.41;66.98;101318.00;697020;28;3317;-66
2021/05/24 00:03:02;;;;;;;4.65;3.42;;;;;;;11.40;67.03;101310.06;696943;28;14755;-65
2021/05/24 00:03:23;;;;;;;5.80;3.50;;;;;;;11.39;66.97;101320.03;696168;28;40295;-66
2021/05/24 00:03:45;;;;;;;3.65;3.38;;;;;;;11.39;67.16;101316.47;697692;28;865;-66
2021/05/24 00:04:07;;;;;;;3.53;3.22;;;;;;;11.38;66.89;101309.38;697646;28;865;-66
2021/05/24 00:04:28;;;;;;;3.38;3.08;;;;;;;11.37;67.50;101313.94;696325;28;23539;-66
2021/05/24 00:04:49;;;;;;;3.20;3.00;;;;;;;11.39;67.09;101316.47;696385;28;21627;-66
2021/05/24 00:05:12;;;;;;;3.40;3.20;;;;;;;11.37;67.28;101322.06;696959;28;23351;-66
2021/05/24 00:05:36;;;;;;;3.30;3.10;;;;;;;11.37;67.29;101322.06;696078;28;40997;-66
2021/05/24 00:05:57;;;;;;;3.40;3.20;;;;;;;11.37;67.41;101319.34;693032;28;111700;-66
2021/05/24 00:06:18;;;;;;;3.20;3.00;;;;;;;11.36;66.94;101323.06;696679;28;23891;-66
2021/05/24 00:06:39;;;;;;;3.40;3.13;;;;;;;11.34;67.23;101312.41;696764;28;23505;-66
2021/05/24 00:07:01;;;;;;;3.10;2.90;;;;;;;11.35;67.30;101316.81;696863;28;23325;-66
2021/05/24 00:07:22;;;;;;;3.30;3.10;;;;;;;11.33;67.04;101317.97;696675;28;22424;-66
2021/05/24 00:07:43;;;;;;;3.55;3.25;;;;;;;11.32;67.28;101319.84;696920;28;21542;-66
2021/05/24 00:08:04;;;;;;;3.50;3.17;;;;;;;11.32;67.13;101314.44;697194;28;14226;-66
2021/05/24 00:08:27;;;;;;;3.42;2.90;;;;;;;11.33;67.03;101323.41;696558;28;27367;-65
2021/05/24 00:08:48;;;;;;;3.17;2.80;;;;;;;11.32;67.34;101322.56;693204;28;67034;-67
2021/05/24 00:09:09;;;;;;;3.35;3.05;;;;;;;11.31;67.48;101315.44;695383;28;23523;-66
2021/05/24 00:09:32;;;;;;;3.10;2.90;;;;;;;11.30;67.06;101316.47;695842;28;23559;-66
2021/05/24 00:09:53;;;;;;;3.00;2.78;;;;;;;11.30;67.36;101318.31;695205;28;67518;-66
2021/05/24 00:10:17;;;;;;;4.20;3.00;;;;;;;11.31;67.17;101320.03;696519;28;21062;-66
2021/05/24 00:10:40;;;;;;;2.70;2.50;;;;;;;11.31;67.39;101318.16;695495;28;58402;-66
2021/05/24 00:11:02;;;;;;;2.90;2.70;;;;;;;11.31;67.58;101320.03;693944;28;92118;-66
2021/05/24 00:11:23;;;;;;;3.13;2.90;;;;;;;11.30;67.37;101307.50;695257;28;36947;-66
2021/05/24 00:11:49;;;;;;;3.08;2.97;;;;;;;11.32;67.28;101317.16;695571;28;23529;-66
2021/05/24 00:12:10;;;;;;;3.42;3.08;;;;;;;11.33;67.56;101312.56;693007;28;139410;-67
2021/05/24 00:12:32;;;;;;;3.17;2.92;;;;;;;11.32;67.12;101308.19;696696;28;21469;-66
2021/05/24 00:12:55;;;;;;;3.13;2.83;;;;;;;11.34;67.09;101319.69;695135;28;22415;-66
2021/05/24 00:13:21;;;;;;;3.00;2.80;;;;;;;11.33;67.31;101307.16;694713;28;37911;-66
2021/05/24 00:13:45;;;;;;;3.35;3.05;;;;;;;11.33;67.28;101310.75;692035;28;113408;-66
2021/05/24 00:14:08;;;;;;;3.30;3.10;;;;;;;11.34;67.52;101308.88;693656;28;69235;-67
2021/05/24 00:14:30;;;;;;;4.15;3.17;;;;;;;11.34;67.24;101307.00;693253;28;66843;-66
2021/05/24 00:14:51;;;;;;;3.17;2.88;;;;;;;11.35;67.62;101305.16;695268;28;46285;-66
2021/05/24 00:15:13;;;;;;;3.03;2.83;;;;;;;11.36;67.38;101306.84;697003;28;23556;-66
2021/05/24 00:15:36;;;;;;;3.28;3.08;;;;;;;11.35;67.60;101303.28;695469;28;70228;-66
2021/05/24 00:15:58;;;;;;;3.50;3.30;;;;;;;11.35;67.71;101307.88;693934;28;61889;-67
2021/05/24 00:16:19;;;;;;;3.35;3.10;;;;;;;11.35;67.50;101305.16;697069;28;22406;-67
2021/05/24 00:16:40;;;;;;;3.50;3.20;;;;;;;11.36;67.42;101309.53;695773;28;46349;-67
2021/05/24 00:17:02;;;;;;;3.25;2.97;;;;;;;11.36;67.27;101306.84;696939;28;23824;-66
2021/05/24 00:17:24;;;;;;;3.60;3.30;;;;;;;11.36;67.22;101306.84;696802;28;22407;-66
2021/05/24 00:17:45;;;;;;;3.50;3.30;;;;;;;11.34;67.55;101304.28;695067;28;46443;-67
2021/05/24 00:18:07;;;;;;;3.40;3.20;;;;;;;11.36;67.55;101309.53;695965;28;45260;-67
2021/05/24 00:18:28;;;;;;;3.30;3.10;;;;;;;11.35;67.65;101310.56;696459;28;21520;-66
2021/05/24 00:18:51;;;;;;;3.30;3.00;;;;;;;11.34;67.68;101308.88;696439;28;21537;-66
2021/05/24 00:19:12;;;;;;;3.25;3.05;;;;;;;11.33;67.71;101299.91;695158;28;69340;-67
2021/05/24 00:19:33;;;;;;;3.67;3.38;;;;;;;11.34;67.46;101306.16;696069;28;23534;-67
2021/05/24 00:19:54;;;;;;;3.67;3.30;;;;;;;11.33;67.53;101310.75;696798;28;22522;-67
2021/05/24 00:20:16;;;;;;;3.33;3.05;;;;;;;11.31;67.61;101306.50;693609;28;22351;-66
2021/05/24 00:20:39;;;;;;;3.20;3.00;;;;;;;11.30;67.35;101313.78;693023;28;46474;-67
2021/05/24 00:21:00;;;;;;;3.50;3.20;;;;;;;11.30;67.75;101308.38;691630;28;90716;-67
2021/05/24 00:21:22;;;;;;;3.30;3.10;;;;;;;11.29;67.55;101303.97;693516;28;22249;-67
2021/05/24 00:21:43;;;;;;;3.53;3.33;;;;;;;11.30;67.54;101302.09;693873;28;23522;-66
2021/05/24 00:22:04;;;;;;;3.50;3.20;;;;;;;11.28;67.89;101302.25;695227;28;8856;-67
2021/05/24 00:22:25;;;;;;;3.50;3.20;;;;;;;11.26;67.36;101304.31;696900;28;22228;-66
2021/05/24 00:22:46;;;;;;;3.20;3.00;;;;;;;11.28;67.49;101301.44;696798;28;6078;-67
2021/05/24 00:23:08;;;;;;;3.50;3.20;;;;;;;11.27;67.47;101299.72;696290;28;34277;-67
2021/05/24 00:23:29;;;;;;;3.75;3.45;;;;;;;11.27;67.45;101300.59;696539;28;22447;-67
2021/05/24 00:23:51;;;;;;;3.75;3.50;;;;;;;11.27;67.32;101302.44;696835;28;21888;-67
2021/05/24 00:24:12;;;;;;;3.80;3.40;;;;;;;11.27;67.80;101299.72;694199;28;45306;-67
2021/05/24 00:24:34;;;;;;;3.72;3.40;;;;;;;11.26;67.41;101304.31;696714;28;23321;-67
2021/05/24 00:24:56;;;;;;;3.10;2.90;;;;;;;11.28;67.40;101296.03;695952;28;44380;-67
2021/05/24 00:25:17;;;;;;;3.63;3.33;;;;;;;11.27;67.32;101305.13;696100;28;45602;-67
2021/05/24 00:25:38;;;;;;;3.63;3.42;;;;;;;11.26;67.61;101300.75;697213;28;23624;-66
2021/05/24 00:26:01;;;;;;;3.42;3.22;;;;;;;11.25;67.48;101302.59;696103;28;22399;-67
2021/05/24 00:26:23;;;;;;;3.63;3.20;;;;;;;11.25;67.52;101299.06;694686;28;92454;-67
2021/05/24 00:26:44;;;;;;;3.30;3.10;;;;;;;11.23;67.85;101299.22;696437;28;27851;-67
2021/05/24 00:27:05;;;;;;;3.28;3.03;;;;;;;11.23;67.78;101295.69;697251;28;8337;-67
2021/05/24 00:27:27;;;;;;;3.58;3.28;;;;;;;11.22;67.40;101296.69;695898;28;46390;-67
2021/05/24 00:27:48;;;;;;;3.55;3.25;;;;;;;11.23;67.51;101295.69;696516;28;23482;-67
2021/05/24 00:28:13;;;;;;;3.85;3.55;;;;;;;11.22;67.71;101302.94;697705;28;1188;-67
2021/05/24 00:28:35;;;;;;;3.33;3.13;;;;;;;11.22;67.98;101300.22;697006;28;14922;-66
2021/05/24 00:28:57;;;;;;;3.10;2.90;;;;;;;11.21;67.86;101295.84;695324;28;12030;-66
2021/05/24 00:29:19;;;;;;;3.55;3.30;;;;;;;11.21;67.95;101298.56;695508;28;34958;-66
2021/05/24 00:29:40;;;;;;;3.55;3.28;;;;;;;11.19;67.74;101295.19;695782;28;46401;-66
2021/05/24 00:30:03;;;;;;;3.13;2.92;;;;;;;11.19;67.75;101292.47;696546;28;23356;-67
2021/05/24 00:30:26;;;;;;;3.20;3.00;;;;;;;11.18;67.89;101294.31;694001;28;67517;-67
2021/05/24 00:30:49;;;;;;;3.35;3.05;;;;;;;11.18;67.64;101291.63;693774;28;70336;-67
2021/05/24 00:31:10;;;;;;;3.42;3.13;;;;;;;11.18;67.72;101283.50;694811;28;69436;-66
2021/05/24 00:31:32;;;;;;;3.40;3.20;;;;;;;11.18;67.63;101286.22;696285;28;22174;-66
2021/05/24 00:31:53;;;;;;;3.58;3.08;;;;;;;11.21;67.83;101295.00;695915;28;46279;-66
2021/05/24 00:32:14;;;;;;;3.80;3.13;;;;;;;11.21;67.81;101289.56;696692;28;20276;-65
2021/05/24 00:32:35;;;;;;;3.38;3.10;;;;;;;11.18;67.74;101288.91;696574;28;23349;-67
2021/05/24 00:32:57;;;;;;;3.40;3.20;;;;;;;11.15;68.04;101278.44;696596;28;22166;-66
2021/05/24 00:33:18;;;;;;;3.33;3.03;;;;;;;11.17;68.45;101289.94;695528;28;21560;-67
2021/05/24 00:33:39;;;;;;;3.33;3.03;;;;;;;11.17;68.04;101284.53;695874;28;46329;-66
2021/05/24 00:34:01;;;;;;;3.47;3.20;;;;;;;11.17;68.04;101289.94;696780;28;23488;-66
2021/05/24 00:34:22;;;;;;;3.35;3.15;;;;;;;11.17;67.92;101280.97;695629;28;46392;-66
2021/05/24 00:34:43;;;;;;;3.03;2.83;;;;;;;11.18;68.15;101288.06;697140;28;15172;-66
2021/05/24 00:35:06;;;;;;;3.40;3.20;;;;;;;11.18;68.22;101288.91;696870;28;21542;-66
2021/05/24 00:35:27;;;;;;;3.13;2.92;;;;;;;11.18;68.02;101279.97;695219;28;69713;-66
2021/05/24 00:35:48;;;;;;;3.22;3.03;;;;;;;11.18;67.93;101283.50;697267;28;4129;-67
2021/05/24 00:36:11;;;;;;;3.20;3.00;;;;;;;11.18;68.33;101294.31;697616;28;925;-67
2021/05/24 00:36:32;;;;;;;3.28;2.97;;;;;;;11.18;67.89;101283.50;694520;28;6845;-66
2021/05/24 00:36:55;;;;;;;3.28;2.97;;;;;;;11.18;68.10;101283.50;693824;28;21991;-67
2021/05/24 00:37:17;;;;;;;3.72;3.10;;;;;;;11.17;68.18;101289.94;693127;28;921;-66
2021/05/24 00:37:39;;;;;;;3.42;3.20;;;;;;;11.17;67.68;101287.25;692924;28;16900;-67
2021/05/24 00:38:01;;;;;;;3.22;3.03;;;;;;;11.17;67.91;101284.53;692264;28;31247;-66
2021/05/24 00:38:22;;;;;;;3.22;3.03;;;;;;;11.18;67.70;101293.47;693662;28;46398;-66
2021/05/24 00:38:43;;;;;;;3.08;2.88;;;;;;;11.16;67.88;101285.53;696710;28;22422;-67
2021/05/24 00:39:07;;;;;;;3.13;2.92;;;;;;;11.15;67.76;101289.25;697214;28;12935;-66
2021/05/24 00:39:29;;;;;;;3.20;3.00;;;;;;;11.15;67.82;101285.72;692895;28;100561;-66
2021/05/24 00:39:51;;;;;;;3.20;3.00;;;;;;;11.13;67.90;101285.88;695907;28;45373;-67
2021/05/24 00:40:13;;;;;;;3.28;3.08;;;;;;;11.12;67.89;101289.56;695557;28;46440;-66
2021/05/24 00:40:36;;;;;;;3.40;3.17;;;;;;;11.11;67.58;101287.91;696731;28;26142;-67
2021/05/24 00:40:57;;;;;;;3.50;3.20;;;;;;;11.10;67.91;101283.50;695305;28;45319;-67
2021/05/24 00:41:18;;;;;;;3.58;3.28;;;;;;;11.10;67.68;101277.25;695779;28;13962;-66
2021/05/24 00:41:41;;;;;;;3.60;3.30;;;;;;;11.11;67.68;101289.75;695492;28;18452;-67
2021/05/24 00:42:02;;;;;;;3.45;3.15;;;;;;;11.12;67.88;101280.63;694350;28;93171;-66
2021/05/24 00:42:24;;;;;;;3.30;3.05;;;;;;;11.12;67.67;101278.75;696629;28;11670;-67
2021/05/24 00:42:45;;;;;;;3.28;3.08;;;;;;;11.14;68.06;101279.47;693013;28;23545;-66
2021/05/24 00:43:08;;;;;;;3.45;3.15;;;;;;;11.14;67.60;101279.47;693875;28;20915;-67
2021/05/24 00:43:29;;;;;;;3.35;3.10;;;;;;;11.16;67.80;101273.88;692179;28;69109;-66
2021/05/24 00:43:52;;;;;;;3.30;3.00;;;;;;;11.16;68.07;101277.44;692818;28;45487;-66
2021/05/24 00:44:13;;;;;;;3.20;2.97;;;;;;;11.17;68.01;101270.16;691080;28;67734;-67
2021/05/24 00:44:35;;;;;;;3.28;3.08;;;;;;;11.17;67.96;101271.03;694898;28;19523;-66
2021/05/24 00:44:56;;;;;;;3.03;2.83;;;;;;;11.18;67.65;101267.28;696819;28;23468;-67
2021/05/24 00:45:17;;;;;;;3.20;3.00;;;;;;;11.18;67.76;101272.69;696060;28;22396;-66
2021/05/24 00:45:39;;;;;;;3.50;3.20;;;;;;;11.15;67.42;101264.91;695708;28;45107;-66
2021/05/24 00:46:00;;;;;;;3.40;3.20;;;;;;;11.16;67.73;101268.47;693013;28;23342;-67
2021/05/24 00:46:21;;;;;;;3.42;3.20;;;;;;;11.17;67.56;101262.91;693882;28;22399;-66
2021/05/24 00:46:43;;;;;;;3.08;2.88;;;;;;;11.17;67.44;101271.03;692881;28;43736;-66
2021/05/24 00:47:04;;;;;;;3.30;3.00;;;;;;;11.16;67.67;101263.91;694119;28;14464;-67
2021/05/24 00:47:26;;;;;;;3.22;3.03;;;;;;;11.16;67.85;101263.91;693143;28;46397;-66
2021/05/24 00:47:47;;;;;;;3.35;3.15;;;;;;;11.16;67.85;101263.91;694028;28;15434;-66
2021/05/24 00:48:10;;;;;;;3.45;3.17;;;;;;;11.17;67.72;101262.03;696999;28;15843;-66
2021/05/24 00:48:31;;;;;;;2.97;2.72;;;;;;;11.17;67.57;101260.22;695143;28;69232;-65
2021/05/24 00:48:52;;;;;;;3.17;2.90;;;;;;;11.17;67.75;101264.75;696058;28;21528;-66
2021/05/24 00:49:13;;;;;;;3.25;3.05;;;;;;;11.17;67.69;101264.75;696725;28;23482;-66
2021/05/24 00:49:34;;;;;;;3.55;3.35;;;;;;;11.16;67.75;101258.50;696050;28;22408;-67
2021/05/24 00:49:55;;;;;;;3.30;3.10;;;;;;;11.17;67.60;101264.75;696414;28;30773;-66
2021/05/24 00:50:17;;;;;;;3.30;3.10;;;;;;;11.16;67.27;101268.47;696798;28;22802;-66
2021/05/24 00:50:40;;;;;;;3.20;3.00;;;;;;;11.16;67.85;101263.91;697474;28;893;-66
2021/05/24 00:51:01;;;;;;;3.20;3.00;;;;;;;11.15;67.29;101264.91;695543;28;46441;-66
2021/05/24 00:51:23;;;;;;;3.23;3.03;;;;;;;11.17;67.74;101262.03;696935;28;22245;-66
2021/05/24 00:51:44;;;;;;;3.60;3.30;;;;;;;11.17;67.44;101260.22;695954;28;42729;-66
2021/05/24 00:52:05;;;;;;;3.58;3.28;;;;;;;11.20;67.77;101260.88;697037;28;16503;-66
2021/05/24 00:52:26;;;;;;;3.33;3.13;;;;;;;11.18;67.58;101258.34;696656;28;23894;-67
2021/05/24 00:52:48;;;;;;;3.22;3.03;;;;;;;11.19;67.60;101251.94;696498;28;19817;-66
2021/05/24 00:53:09;;;;;;;3.50;2.92;;;;;;;11.18;67.66;101251.06;694570;28;46350;-67
2021/05/24 00:53:30;;;;;;;3.45;3.15;;;;;;;11.21;67.71;101260.69;696926;28;14319;-67
2021/05/24 00:53:51;;;;;;;3.50;3.20;;;;;;;11.22;67.51;101256.97;696610;28;22282;-66
2021/05/24 00:54:13;;;;;;;3.42;3.10;;;;;;;11.23;67.37;101257.84;695876;28;46367;-67
2021/05/24 00:54:34;;;;;;;3.58;2.90;;;;;;;11.24;67.70;101260.38;696721;28;21338;-66
2021/05/24 00:54:56;;;;;;;2.95;2.83;;;;;;;11.24;67.60;101257.66;696800;28;21328;-66
2021/05/24 00:55:17;;;;;;;2.80;2.70;;;;;;;11.24;67.50;101254.97;695854;28;46294;-66
2021/05/24 00:55:39;;;;;;;3.17;2.97;;;;;;;11.22;67.04;101254.25;696348;28;45271;-66
2021/05/24 00:56:00;;;;;;;3.42;3.13;;;;;;;11.22;67.16;101259.66;695814;28;22401;-67
2021/05/24 00:56:23;;;;;;;3.30;3.10;;;;;;;11.22;67.11;101251.56;696320;28;33224;-66
2021/05/24 00:56:44;;;;;;;3.15;2.95;;;;;;;11.22;67.38;101250.72;695995;28;42835;-66
2021/05/24 00:57:05;;;;;;;3.20;3.00;;;;;;;11.21;67.22;101249.88;696864;28;21363;-66
2021/05/24 00:57:26;;;;;;;2.92;2.72;;;;;;;11.19;66.90;101251.94;696571;28;22415;-66
2021/05/24 00:57:47;;;;;;;3.15;2.95;;;;;;;11.18;66.96;101255.63;695431;28;47208;-67
2021/05/24 00:58:09;;;;;;;3.20;3.00;;;;;;;11.17;67.34;101257.50;696661;28;22412;-66
2021/05/24 00:58:30;;;;;;;3.20;3.00;;;;;;;11.17;67.35;101260.22;695755;28;10889;-66
2021/05/24 00:58:51;;;;;;;2.97;2.78;;;;;;;11.16;67.09;101253.09;695442;28;22679;-67
2021/05/24 00:59:12;;;;;;;2.80;2.60;;;;;;;11.15;67.27;101251.41;695803;28;23544;-66
2021/05/24 00:59:33;;;;;;;2.90;2.65;;;;;;;11.15;67.05;101253.25;695960;28;22422;-66
2021/05/24 00:59:55;;;;;;;3.03;2.83;;;;;;;11.15;67.05;101256.81;696323;28;21574;-66
2021/05/24 01:00:24;;;;;;;3.20;3.00;;;;;;;11.14;67.33;101252.44;696409;28;29645;-66
2021/05/24 01:00:48;;;;;;;3.35;2.85;;;;;;;11.12;67.00;101248.19;692497;28;122520;-66
2021/05/24 01:01:13;;;;;;;2.85;2.67;;;;;;;11.12;67.15;101251.72;695142;28;61731;-66
2021/05/24 01:01:34;;;;;;;2.95;2.75;;;;;;;11.13;67.57;101249.91;694681;28;41765;-66
2021/05/24 01:01:55;;;;;;;3.35;3.05;;;;;;;11.12;67.34;101240.91;695272;28;8957;-66
2021/05/24 01:02:16;;;;;;;2.88;2.60;;;;;;;11.13;67.56;101247.19;695972;28;23156;-66
2021/05/24 01:02:37;;;;;;;2.65;2.45;;;;;;;11.13;67.65;101248.03;696470;28;23683;-65
2021/05/24 01:02:59;;;;;;;2.63;2.42;;;;;;;11.13;67.42;101242.63;693433;28;14713;-66
2021/05/24 01:03:20;;;;;;;3.20;2.63;;;;;;;11.13;67.79;101242.63;694243;28;21445;-66
2021/05/24 01:03:41;;;;;;;3.13;2.72;;;;;;;11.14;67.69;101255.13;694262;28;7102;-66
2021/05/24 01:04:02;;;;;;;2.92;2.72;;;;;;;11.13;67.71;101248.03;694067;28;20985;-66
2021/05/24 01:04:24;;;;;;;2.75;2.60;;;;;;;11.12;67.67;101249.03;693406;28;23697;-66
2021/05/24 01:04:45;;;;;;;2.88;2.67;;;;;;;11.13;67.46;101242.63;693467;28;45127;-66
2021/05/24 01:05:08;;;;;;;2.95;2.75;;;;;;;11.15;67.59;101246.00;695315;28;24354;-66
2021/05/24 01:05:29;;;;;;;3.00;2.80;;;;;;;11.15;67.63;101251.41;695330;28;67687;-66
2021/05/24 01:05:51;;;;;;;2.80;2.70;;;;;;;11.16;67.39;101246.84;696146;28;22567;-66
2021/05/24 01:06:12;;;;;;;2.67;2.53;;;;;;;11.15;67.41;101246.00;695522;28;46323;-66
2021/05/24 01:06:33;;;;;;;2.65;2.50;;;;;;;11.16;67.54;101247.69;696684;28;20144;-66
2021/05/24 01:06:55;;;;;;;2.78;2.60;;;;;;;11.17;67.17;101245.81;696938;28;21565;-66
2021/05/24 01:07:16;;;;;;;3.13;2.85;;;;;;;11.18;67.22;101244.81;695028;28;45272;-66
2021/05/24 01:07:38;;;;;;;3.50;2.85;;;;;;;11.17;67.16;101241.28;696514;28;24336;-66
2021/05/24 01:07:59;;;;;;;2.75;2.65;;;;;;;11.19;67.27;101249.22;695357;28;46353;-66
2021/05/24 01:08:20;;;;;;;3.10;2.80;;;;;;;11.19;67.11;101235.69;697502;28;897;-67
2021/05/24 01:08:41;;;;;;;3.20;2.90;;;;;;;11.23;67.23;101238.91;696051;28;21246;-66
2021/05/24 01:09:03;;;;;;;4.28;2.78;;;;;;;11.22;67.09;101240.75;696643;28;22410;-66
2021/05/24 01:09:24;;;;;;;3.30;3.00;;;;;;;11.23;67.26;101241.59;694017;28;46384;-66
2021/05/24 01:09:45;;;;;;;2.92;2.75;;;;;;;11.23;66.95;101233.50;696384;28;5540;-66
2021/05/24 01:10:08;;;;;;;3.05;2.88;;;;;;;11.24;67.28;101243.28;696383;28;22400;-66
2021/05/24 01:10:31;;;;;;;2.95;2.70;;;;;;;11.23;67.19;101241.59;694998;28;70003;-66
2021/05/24 01:10:52;;;;;;;2.80;2.67;;;;;;;11.22;67.23;101237.19;694957;28;68394;-66
2021/05/24 01:11:13;;;;;;;2.90;2.70;;;;;;;11.23;67.34;101241.59;695681;28;21278;-67
2021/05/24 01:11:34;;;;;;;3.20;2.92;;;;;;;11.22;66.80;101246.16;697145;28;22672;-66
2021/05/24 01:11:56;;;;;;;3.50;3.20;;;;;;;11.23;66.71;101244.31;696785;28;23482;-66
2021/05/24 01:12:17;;;;;;;3.20;3.00;;;;;;;11.22;66.93;101243.44;696612;28;21552;-66
2021/05/24 01:12:38;;;;;;;3.60;3.20;;;;;;;11.22;67.01;101243.44;695745;28;44760;-65
2021/05/24 01:13:00;;;;;;;2.95;2.75;;;;;;;11.21;67.06;101243.63;696302;28;22409;-66
2021/05/24 01:13:21;;;;;;;3.40;2.60;;;;;;;11.21;66.75;101236.38;696024;28;46267;-66
2021/05/24 01:13:43;;;;;;;2.92;2.72;;;;;;;11.21;66.83;101247.19;695736;28;47282;-66
2021/05/24 01:14:04;;;;;;;2.95;2.70;;;;;;;11.18;66.80;101236.72;695470;28;22420;-66
2021/05/24 01:14:25;;;;;;;3.10;2.75;;;;;;;11.17;66.38;101237.72;695379;28;23450;-66
2021/05/24 01:14:46;;;;;;;3.00;2.80;;;;;;;11.15;66.76;101242.44;696177;28;22457;-66
2021/05/24 01:15:09;;;;;;;2.83;2.72;;;;;;;11.13;66.64;101239.91;696648;28;21454;-66
2021/05/24 01:15:31;;;;;;;2.70;2.60;;;;;;;11.12;66.98;101243.63;694512;28;93173;-66
2021/05/24 01:15:52;;;;;;;3.20;2.90;;;;;;;11.11;66.83;101239.25;695043;28;4120;-66
2021/05/24 01:16:14;;;;;;;3.00;2.80;;;;;;;11.10;66.84;101239.41;695155;28;22479;-66
2021/05/24 01:16:35;;;;;;;3.10;2.90;;;;;;;11.08;67.07;101238.72;696222;28;23586;-66
2021/05/24 01:16:56;;;;;;;2.90;2.70;;;;;;;11.08;66.99;101238.72;696386;28;19621;-66
2021/05/24 01:17:17;;;;;;;2.80;2.60;;;;;;;11.08;67.25;101239.59;696469;28;22367;-66
2021/05/24 01:17:38;;;;;;;2.95;2.65;;;;;;;11.07;67.32;101248.69;695701;28;44387;-66
2021/05/24 01:17:59;;;;;;;3.10;2.90;;;;;;;11.05;67.03;101242.63;696679;28;16258;-66
2021/05/24 01:18:21;;;;;;;2.90;2.70;;;;;;;11.06;67.30;101241.59;697471;28;9659;-66
2021/05/24 01:18:42;;;;;;;3.00;2.80;;;;;;;11.06;67.21;101244.28;697118;28;14166;-66
2021/05/24 01:19:03;;;;;;;3.15;2.95;;;;;;;11.08;67.16;101244.13;696475;28;28027;-66
2021/05/24 01:19:24;;;;;;;3.05;2.85;;;;;;;11.06;67.30;101233.47;695938;28;21338;-65
2021/05/24 01:19:46;;;;;;;3.28;3.08;;;;;;;11.09;66.93;101243.13;695821;28;22371;-66
2021/05/24 01:20:09;;;;;;;3.20;3.00;;;;;;;11.08;67.24;101242.28;695695;28;44377;-66
2021/05/24 01:20:30;;;;;;;3.13;2.92;;;;;;;11.09;66.92;101245.81;695648;28;46389;-66
2021/05/24 01:20:51;;;;;;;3.00;2.80;;;;;;;11.08;67.14;101245.00;695470;28;46222;-66
2021/05/24 01:21:13;;;;;;;2.70;2.60;;;;;;;11.08;66.93;101246.81;696869;28;13786;-66
2021/05/24 01:21:34;;;;;;;3.30;2.72;;;;;;;11.09;67.35;101246.66;695734;28;46419;-66
2021/05/24 01:21:56;;;;;;;3.15;2.95;;;;;;;11.10;67.38;101244.81;696445;28;23220;-66
2021/05/24 01:22:19;;;;;;;3.00;2.80;;;;;;;11.11;67.33;101254.59;696816;28;17282;-66
2021/05/24 01:22:48;;;;;;;2.97;2.78;;;;;;;11.11;67.11;101241.09;694230;28;83699;-66
2021/05/24 01:23:11;;;;;;;3.72;3.00;;;;;;;11.12;66.77;101250.91;691332;28;157338;-66
2021/05/24 01:23:32;;;;;;;3.00;2.72;;;;;;;11.12;67.03;101245.50;694173;28;69301;-66
2021/05/24 01:23:53;;;;;;;3.10;2.90;;;;;;;11.11;66.71;101249.19;696156;28;39053;-66
2021/05/24 01:24:17;;;;;;;3.10;2.90;;;;;;;11.10;66.70;101240.25;697397;28;4053;-66
2021/05/24 01:24:38;;;;;;;3.63;3.03;;;;;;;11.11;66.93;101241.94;694142;28;69188;-66
2021/05/24 01:24:59;;;;;;;3.45;2.63;;;;;;;11.08;67.09;101239.59;696668;28;21671;-66
2021/05/24 01:25:21;;;;;;;2.78;2.63;;;;;;;11.10;66.94;101242.97;696523;28;22430;-66
2021/05/24 01:25:43;;;;;;;3.20;2.90;;;;;;;11.10;66.96;101242.97;693106;28;46337;-66
2021/05/24 01:26:06;;;;;;;3.03;2.83;;;;;;;11.10;66.75;101242.97;693213;28;29915;-66
2021/05/24 01:26:27;;;;;;;3.15;2.95;;;;;;;11.11;67.07;101241.94;692460;28;46293;-67
2021/05/24 01:26:49;;;;;;;3.40;2.80;;;;;;;11.11;66.99;101239.25;693647;28;22484;-66
2021/05/24 01:27:11;;;;;;;2.85;2.65;;;;;;;11.12;66.82;101243.63;692919;28;39350;-67
2021/05/24 01:27:32;;;;;;;2.92;2.72;;;;;;;11.10;67.04;101234.84;693927;28;46335;-67
2021/05/24 01:27:53;;;;;;;2.75;2.65;;;;;;;11.11;66.73;101238.38;697285;28;1761;-67
2021/05/24 01:28:16;;;;;;;3.17;2.97;;;;;;;11.11;66.95;101239.25;696724;28;17082;-67
2021/05/24 01:28:38;;;;;;;3.47;2.88;;;;;;;11.10;67.01;101237.53;694794;28;68402;-67
2021/05/24 01:28:59;;;;;;;2.83;2.63;;;;;;;11.09;66.95;101243.13;696296;28;36410;-66
2021/05/24 01:29:20;;;;;;;2.70;2.50;;;;;;;11.08;66.95;101242.28;695911;28;23481;-67
2021/05/24 01:29:41;;;;;;;2.92;2.72;;;;;;;11.07;66.88;101243.28;695938;28;23476;-66
2021/05/24 01:30:04;;;;;;;3.03;2.83;;;;;;;11.06;66.77;101241.59;695606;28;46286;-66
2021/05/24 01:30:30;;;;;;;3.00;2.70;;;;;;;11.06;66.64;101249.69;695061;28;61746;-66
2021/05/24 01:30:51;;;;;;;2.92;2.70;;;;;;;11.05;66.98;101241.75;696433;28;24533;-66
2021/05/24 01:31:13;;;;;;;2.70;2.50;;;;;;;11.04;66.66;101246.31;696644;28;21531;-66
2021/05/24 01:31:35;;;;;;;2.83;2.63;;;;;;;11.03;66.65;101241.94;696350;28;27001;-66
2021/05/24 01:31:56;;;;;;;3.03;2.83;;;;;;;11.02;67.04;101233.97;696124;28;36524;-66
2021/05/24 01:32:17;;;;;;;3.05;2.67;;;;;;;11.02;66.94;101240.25;697017;28;15288;-66
2021/05/24 01:32:39;;;;;;;2.53;2.42;;;;;;;11.02;66.77;101242.09;696631;28;22222;-66
2021/05/24 01:33:01;;;;;;;2.50;2.40;;;;;;;10.99;67.00;101241.44;695777;28;39416;-66
2021/05/24 01:33:22;;;;;;;2.60;2.40;;;;;;;11.00;67.18;101237.72;695763;28;46362;-66
2021/05/24 01:33:44;;;;;;;2.80;2.60;;;;;;;11.00;67.24;101242.25;695208;28;16072;-66
2021/05/24 01:34:05;;;;;;;3.00;2.80;;;;;;;11.01;67.13;101241.25;694733;28;43060;-66
2021/05/24 01:34:26;;;;;;;2.83;2.63;;;;;;;11.00;67.06;101243.13;695452;28;21350;-66
2021/05/24 01:34:47;;;;;;;2.90;2.70;;;;;;;10.99;66.80;101249.53;695973;28;22388;-66
2021/05/24 01:35:09;;;;;;;2.80;2.60;;;;;;;10.98;66.77;101244.28;697062;28;21575;-66
2021/05/24 01:35:30;;;;;;;2.75;2.65;;;;;;;10.99;66.85;101246.81;695714;28;44342;-66
2021/05/24 01:35:51;;;;;;;2.72;2.63;;;;;;;10.99;66.76;101246.00;696077;28;21519;-67
2021/05/24 01:36:14;;;;;;;3.00;2.78;;;;;;;10.98;67.26;101249.69;696717;28;22348;-66
2021/05/24 01:36:35;;;;;;;2.97;2.67;;;;;;;10.97;67.15;101243.47;695367;28;43928;-66
2021/05/24 01:36:59;;;;;;;2.80;2.60;;;;;;;10.97;66.84;101240.75;694416;28;67809;-66
2021/05/24 01:37:20;;;;;;;2.88;2.67;;;;;;;10.95;66.98;101244.63;694573;28;37572;-66
2021/05/24 01:37:41;;;;;;;2.80;2.60;;;;;;;10.95;66.89;101244.63;695596;28;7110;-66
2021/05/24 01:38:03;;;;;;;2.95;2.75;;;;;;;10.94;67.09;101251.03;695446;28;22401;-66
2021/05/24 01:38:25;;;;;;;3.03;2.53;;;;;;;10.93;67.38;101242.09;696063;28;32527;-66
2021/05/24 01:38:47;;;;;;;2.90;2.70;;;;;;;10.94;67.06;101248.34;696844;28;901;-66
2021/05/24 01:39:08;;;;;;;2.60;2.50;;;;;;;10.93;67.01;101247.50;697141;28;11932;-67
2021/05/24 01:39:30;;;;;;;2.60;2.50;;;;;;;10.92;67.35;101251.19;696262;28;12147;-66
2021/05/24 01:39:51;;;;;;;2.58;2.47;;;;;;;10.92;67.50;101247.66;695352;28;43408;-66
2021/05/24 01:40:19;;;;;;;3.00;2.80;;;;;;;10.92;67.32;101253.91;695055;28;60938;-66
2021/05/24 01:40:42;;;;;;;2.72;2.63;;;;;;;10.91;67.35;101252.22;692531;28;46060;-66
2021/05/24 01:41:04;;;;;;;2.90;2.70;;;;;;;10.91;67.47;101256.78;693081;28;46853;-66
2021/05/24 01:41:25;;;;;;;3.10;2.80;;;;;;;10.92;67.45;101255.78;692377;28;38793;-67
2021/05/24 01:41:47;;;;;;;2.90;2.70;;;;;;;10.91;67.47;101245.97;692363;28;19627;-66
2021/05/24 01:42:08;;;;;;;3.13;2.92;;;;;;;10.88;67.48;101244.47;692665;28;45271;-66
2021/05/24 01:42:29;;;;;;;3.40;3.10;;;;;;;10.88;67.19;101255.25;694383;28;23457;-67